Time;durP1;ratioP1;P1;durP2;ratioP2;P2;SDS_P1;SDS_P2;PMS_P1;PMS_P2;Temp;Humidity;BMP_temperature;BMP_pressure;BME280_temperature;BME280_humidity;BME280_pressure;Samples;Min_cycle;Max_cycle;Signal;HPM_P1;HPM_P2
2021/12/01 00:00:46;;;;;;;1.23;1.23;;;;;;;3.52;100.00;96220.34;5082748;28;20188;-61
2021/12/01 00:03:12;;;;;;;1.30;1.30;;;;;;;3.53;100.00;96227.94;5089999;28;20177;-62
2021/12/01 00:05:38;;;;;;;1.00;1.00;;;;;;;3.68;100.00;96220.78;5074336;28;20233;-61
2021/12/01 00:08:04;;;;;;;1.33;1.30;;;;;;;3.65;100.00;96218.59;5073182;28;20236;-61
2021/12/01 00:10:34;;;;;;;1.40;1.40;;;;;;;3.65;100.00;96205.63;5078257;28;20487;-62
2021/12/01 00:13:00;;;;;;;1.40;1.30;;;;;;;3.67;100.00;96216.59;5091133;28;20398;-60
2021/12/01 00:15:25;;;;;;;1.33;1.27;;;;;;;3.59;100.00;96206.41;5092203;28;20397;-57
2021/12/01 00:17:51;;;;;;;1.20;1.20;;;;;;;3.66;100.00;96202.06;5092160;28;20766;-60
2021/12/01 00:20:18;;;;;;;1.30;1.30;;;;;;;3.75;100.00;96195.66;5086223;28;20407;-61
2021/12/01 00:22:45;;;;;;;1.20;1.20;;;;;;;3.78;100.00;96201.47;5073180;28;20479;-61
2021/12/01 00:25:12;;;;;;;1.20;1.20;;;;;;;3.85;100.00;96202.25;5075364;28;20390;-60
2021/12/01 00:27:38;;;;;;;1.20;1.10;;;;;;;3.81;100.00;96201.06;5082786;28;20404;-59
2021/12/01 00:30:05;;;;;;;1.02;1.02;;;;;;;3.85;100.00;96197.06;5073372;28;20445;-61
2021/12/01 00:32:31;;;;;;;1.10;1.10;;;;;;;3.88;100.00;96183.72;5091636;28;20912;-61
2021/12/01 00:34:59;;;;;;;1.30;1.27;;;;;;;3.74;100.00;96190.69;5090107;28;20433;-61
2021/12/01 00:37:24;;;;;;;1.00;1.00;;;;;;;3.64;100.00;96191.06;5091301;28;20397;-58
2021/12/01 00:39:50;;;;;;;1.10;1.00;;;;;;;3.63;100.00;96197.25;5091357;28;20389;-59
2021/12/01 00:42:18;;;;;;;1.10;1.10;;;;;;;3.86;100.00;96194.28;5074817;28;20473;-59
2021/12/01 00:44:54;;;;;;;0.93;0.93;;;;;;;3.68;100.00;96186.28;5083343;28;20401;-60
2021/12/01 00:47:22;;;;;;;0.80;0.80;;;;;;;3.80;100.00;96187.28;5071828;28;20407;-61
2021/12/01 00:49:48;;;;;;;0.98;0.98;;;;;;;3.77;100.00;96174.75;5071511;28;20871;-61
2021/12/01 00:52:13;;;;;;;0.83;0.83;;;;;;;3.69;100.00;96157.59;5071493;28;20189;-60
2021/12/01 00:54:38;;;;;;;0.83;0.83;;;;;;;3.55;100.00;96158.59;5078684;28;20573;-58
2021/12/01 00:57:04;;;;;;;0.90;0.90;;;;;;;3.62;100.00;96150.81;5092898;28;20245;-61
2021/12/01 00:59:29;;;;;;;0.90;0.90;;;;;;;3.48;100.00;96150.00;5092879;28;20173;-60
2021/12/01 01:01:55;;;;;;;0.90;0.90;;;;;;;3.51;100.00;96138.47;5091055;28;20184;-61
2021/12/01 01:04:21;;;;;;;1.20;1.13;;;;;;;3.50;100.00;96153.22;5075424;28;20228;-61
2021/12/01 01:06:46;;;;;;;1.00;1.00;;;;;;;3.50;100.00;96142.03;5092551;28;20204;-55
2021/12/01 01:09:12;;;;;;;0.90;0.90;;;;;;;3.51;100.00;96148.81;5081943;28;20216;-60
2021/12/01 01:17:10;;;;;;;1.03;1.03;;;;;;;3.52;100.00;96145.22;5096385;28;20210;-61
2021/12/01 01:19:37;;;;;;;1.20;1.20;;;;;;;3.57;100.00;96150.59;5093886;28;20180;-61
2021/12/01 01:22:05;;;;;;;1.27;1.23;;;;;;;3.52;100.00;96155.56;5077700;28;20180;-61
2021/12/01 01:24:31;;;;;;;1.10;1.10;;;;;;;3.61;100.00;96154.41;5076574;28;20177;-61
2021/12/01 01:26:57;;;;;;;1.10;1.10;;;;;;;3.72;100.00;96161.59;5076379;28;20589;-61
2021/12/01 01:29:25;;;;;;;1.20;1.20;;;;;;;3.66;100.00;96152.00;5076754;28;20626;-61
2021/12/01 01:31:56;;;;;;;2.50;1.30;;;;;;;3.65;100.00;96153.00;5095094;28;20172;-61
2021/12/01 01:34:24;;;;;;;1.23;1.20;;;;;;;3.65;100.00;96153.81;5096216;28;20190;-61
2021/12/01 01:36:50;;;;;;;1.10;1.10;;;;;;;3.82;100.00;96151.63;5096379;28;20232;-61
2021/12/01 01:39:16;;;;;;;1.20;1.20;;;;;;;3.81;100.00;96146.63;5096045;28;20601;-61
2021/12/01 01:41:42;;;;;;;1.33;1.23;;;;;;;3.85;100.00;96150.41;5076445;28;20635;-61
2021/12/01 01:44:08;;;;;;;1.27;1.17;;;;;;;3.82;100.00;96145.63;5081864;28;20250;-61
2021/12/01 01:46:36;;;;;;;3.47;1.50;;;;;;;3.83;100.00;96144.66;5095305;28;20207;-61
2021/12/01 01:49:24;;;;;;;1.20;1.20;;;;;;;3.67;100.00;96138.06;5095824;28;20197;-61
2021/12/01 01:51:50;;;;;;;1.50;1.40;;;;;;;3.67;100.00;96138.88;5076024;28;20659;-61
2021/12/01 01:54:16;;;;;;;1.20;1.20;;;;;;;3.74;100.00;96131.06;5075642;28;20185;-61
2021/12/01 01:56:43;;;;;;;2.80;1.50;;;;;;;3.79;100.00;96127.91;5075774;28;20205;-61
2021/12/01 01:59:09;;;;;;;1.33;1.30;;;;;;;3.80;100.00;96117.31;5088477;28;20245;-61
2021/12/01 02:01:53;;;;;;;1.60;1.50;;;;;;;3.72;100.00;96120.94;5078370;28;20189;-62
2021/12/01 02:04:19;;;;;;;2.43;1.40;;;;;;;3.81;100.00;96113.72;5093179;28;20232;-61
2021/12/01 02:06:47;;;;;;;1.10;1.10;;;;;;;3.91;100.00;96102.94;5084587;28;20597;-61
2021/12/01 02:09:14;;;;;;;1.50;1.50;;;;;;;3.99;100.00;96107.94;5090431;28;20240;-61
2021/12/01 02:11:41;;;;;;;1.67;1.57;;;;;;;3.82;100.00;96099.78;5093270;28;20258;-61
2021/12/01 02:14:06;;;;;;;1.47;1.47;;;;;;;3.83;100.00;96098.00;5075580;28;20240;-62
2021/12/01 02:16:33;;;;;;;1.60;1.50;;;;;;;3.92;100.00;96092.38;5075341;28;20237;-60
2021/12/01 02:18:58;;;;;;;2.10;1.40;;;;;;;3.86;100.00;96089.81;5088006;28;20621;-61
2021/12/01 02:21:29;;;;;;;1.37;1.30;;;;;;;3.95;100.00;96080.84;5095587;28;20275;-62
2021/12/01 02:23:59;;;;;;;1.93;1.73;;;;;;;3.95;100.00;96079.03;5074285;28;20170;-60
2021/12/01 02:26:28;;;;;;;1.70;1.60;;;;;;;4.01;100.00;96065.25;5075049;28;20669;-61
2021/12/01 02:28:55;;;;;;;1.47;1.47;;;;;;;3.91;100.00;96072.66;5085372;28;20193;-65
2021/12/01 02:31:25;;;;;;;1.83;1.50;;;;;;;3.79;100.00;96068.31;5080200;28;20536;-60
2021/12/01 02:33:52;;;;;;;1.43;1.40;;;;;;;3.69;100.00;96063.50;5085039;28;20279;-61
2021/12/01 02:36:18;;;;;;;2.03;1.63;;;;;;;3.91;100.00;96057.09;5088659;28;20537;-61
2021/12/01 02:38:46;;;;;;;1.40;1.40;;;;;;;3.93;100.00;96057.69;5084689;28;20179;-62
2021/12/01 02:41:12;;;;;;;1.57;1.47;;;;;;;3.99;100.00;96054.28;5093238;28;20200;-61
2021/12/01 02:43:39;;;;;;;1.63;1.53;;;;;;;4.10;100.00;96056.25;5094106;28;20256;-63
2021/12/01 02:46:05;;;;;;;1.30;1.30;;;;;;;4.11;100.00;96046.69;5079139;28;20228;-61
2021/12/01 02:48:31;;;;;;;1.40;1.30;;;;;;;4.30;100.00;96040.63;5093287;28;20201;-61
2021/12/01 02:50:57;;;;;;;1.33;1.23;;;;;;;4.22;100.00;96042.66;5094651;28;20233;-61
2021/12/01 02:53:24;;;;;;;2.07;1.17;;;;;;;4.14;100.00;96034.09;5091906;28;20215;-62
2021/12/01 02:55:52;;;;;;;;;;;;;;;4.11;100.00;96025.94;5087873;28;20457;-62
2021/12/01 02:58:18;;;;;;;;;;;;;;;4.11;100.00;96025.94;5074792;28;19920;-60
2021/12/01 03:00:43;;;;;;;;;;;;;;;4.21;100.00;96020.31;5074812;28;19955;-60
2021/12/01 03:03:09;;;;;;;;;;;;;;;4.29;100.00;96022.69;5075879;28;20284;-60
2021/12/01 03:05:34;;;;;;;;;;;;;;;4.17;100.00;96010.38;5077157;28;20274;-61
2021/12/01 03:08:00;;;;;;;;;;;;;;;4.27;100.00;96015.09;5082135;28;20401;-63
2021/12/01 03:10:26;;;;;;;1.27;1.20;;;;;;;4.34;100.00;96017.69;5074368;28;20282;-61
2021/12/01 03:12:51;;;;;;;1.38;1.33;;;;;;;4.35;100.00;96006.28;5073063;28;20397;-60
2021/12/01 03:15:16;;;;;;;1.20;1.20;;;;;;;4.44;99.83;96005.84;5089205;28;20486;-60
2021/12/01 03:17:43;;;;;;;1.20;1.20;;;;;;;4.42;99.79;95992.28;5073036;28;20391;-62
2021/12/01 03:20:14;;;;;;;1.30;1.20;;;;;;;4.54;99.25;95989.84;5072943;28;20415;-61
2021/12/01 03:22:42;;;;;;;1.48;1.10;;;;;;;4.61;98.37;95982.81;5085443;28;20814;-61
2021/12/01 03:25:12;;;;;;;1.02;1.02;;;;;;;4.55;98.71;95979.25;5076264;28;20402;-60
2021/12/01 03:27:38;;;;;;;1.40;1.08;;;;;;;4.61;99.05;95969.84;5092350;28;20471;-61
2021/12/01 03:30:08;;;;;;;1.07;1.07;;;;;;;4.50;98.79;95957.53;5085130;28;20391;-62
2021/12/01 03:32:35;;;;;;;1.00;1.00;;;;;;;4.65;98.01;95962.41;5072863;28;20387;-61
2021/12/01 03:35:03;;;;;;;1.10;1.10;;;;;;;4.57;97.76;95953.88;5072190;28;20759;-62
2021/12/01 03:37:29;;;;;;;0.90;0.90;;;;;;;4.72;97.48;95953.59;5072270;28;20927;-61
2021/12/01 03:39:54;;;;;;;1.50;1.40;;;;;;;4.63;97.41;95957.44;5077876;28;20476;-60
2021/12/01 03:42:20;;;;;;;1.00;1.00;;;;;;;4.66;98.03;95951.84;5084390;28;20427;-59
2021/12/01 03:44:45;;;;;;;1.17;1.00;;;;;;;4.80;97.58;95953.31;5086019;28;20394;-60
2021/12/01 03:47:11;;;;;;;0.90;0.90;;;;;;;4.79;97.68;95948.38;5092148;28;20424;-60
2021/12/01 03:49:36;;;;;;;0.93;0.90;;;;;;;4.86;97.00;95942.09;5089605;28;20390;-60
2021/12/01 03:52:02;;;;;;;1.07;0.97;;;;;;;4.79;97.46;95941.34;5072451;28;20798;-60
2021/12/01 03:54:28;;;;;;;0.90;0.90;;;;;;;4.81;96.83;95941.94;5072598;28;20404;-61
2021/12/01 03:56:54;;;;;;;1.10;1.10;;;;;;;4.93;97.05;95939.47;5085428;28;20472;-61
2021/12/01 03:59:19;;;;;;;1.02;1.02;;;;;;;4.93;96.44;95931.66;5091980;28;20402;-58
2021/12/01 04:01:49;;;;;;;1.10;1.10;;;;;;;4.94;96.84;95923.69;5087983;28;20878;-61
2021/12/01 04:04:19;;;;;;;1.10;1.10;;;;;;;4.83;97.10;95910.59;5074677;28;20925;-60
2021/12/01 04:06:44;;;;;;;1.08;1.05;;;;;;;4.81;97.20;95905.59;5072451;28;20407;-60
2021/12/01 04:09:11;;;;;;;1.20;1.10;;;;;;;4.96;96.97;95908.66;5072081;28;20404;-62
2021/12/01 04:11:38;;;;;;;1.35;1.05;;;;;;;5.01;96.07;95906.22;5090457;28;20402;-60
2021/12/01 04:14:03;;;;;;;1.00;1.00;;;;;;;4.90;96.98;95904.31;5091963;28;20425;-62
2021/12/01 04:16:29;;;;;;;1.30;1.20;;;;;;;5.13;95.55;95906.31;5088655;28;20411;-61
2021/12/01 04:18:55;;;;;;;1.10;1.10;;;;;;;5.06;96.34;95907.41;5072078;28;20460;-61
2021/12/01 04:21:21;;;;;;;1.02;1.02;;;;;;;4.99;97.06;95895.25;5072171;28;20888;-60
2021/12/01 04:23:47;;;;;;;1.13;1.10;;;;;;;4.95;96.90;95894.13;5072176;28;20399;-60
2021/12/01 04:26:16;;;;;;;1.08;1.08;;;;;;;4.95;97.25;95886.31;5072879;28;20431;-62
2021/12/01 04:28:42;;;;;;;1.38;1.23;;;;;;;4.98;96.67;95870.31;5072257;28;20513;-60
2021/12/01 04:31:08;;;;;;;1.40;1.20;;;;;;;5.02;96.50;95873.25;5072872;28;20395;-60
2021/12/01 04:33:33;;;;;;;1.40;1.10;;;;;;;5.02;96.45;95868.06;5072260;28;20419;-59
2021/12/01 04:35:59;;;;;;;1.20;1.13;;;;;;;5.17;96.24;95862.53;5082350;28;20916;-60
2021/12/01 04:38:24;;;;;;;1.50;1.20;;;;;;;5.07;96.44;95855.22;5091599;28;20712;-60
2021/12/01 04:40:50;;;;;;;1.07;1.00;;;;;;;5.11;95.69;95853.81;5072413;28;20510;-60
2021/12/01 04:43:17;;;;;;;1.10;1.10;;;;;;;5.12;95.79;95844.22;5071510;28;20906;-60
2021/12/01 04:45:44;;;;;;;1.00;1.00;;;;;;;5.12;96.42;95841.63;5071269;28;20399;-60
2021/12/01 04:48:10;;;;;;;0.90;0.90;;;;;;;5.07;96.65;95828.50;5078395;28;20433;-60
2021/12/01 04:50:35;;;;;;;1.48;1.08;;;;;;;5.07;96.46;95834.44;5079147;28;20388;-59
2021/12/01 04:53:01;;;;;;;1.00;1.00;;;;;;;5.11;96.21;95820.06;5098177;28;20404;-60
2021/12/01 04:55:26;;;;;;;1.83;1.17;;;;;;;5.20;95.73;95805.75;5096709;28;20416;-60
2021/12/01 04:57:52;;;;;;;1.02;0.95;;;;;;;5.19;95.77;95803.38;5095870;28;20398;-60
2021/12/01 05:00:21;;;;;;;1.63;1.05;;;;;;;5.17;95.68;95801.00;5079801;28;20920;-60
2021/12/01 05:02:47;;;;;;;0.90;0.90;;;;;;;5.32;95.02;95796.22;5078234;28;20403;-60
2021/12/01 05:05:13;;;;;;;0.90;0.90;;;;;;;5.31;95.32;95793.84;5081997;28;20758;-60
2021/12/01 05:07:39;;;;;;;0.80;0.80;;;;;;;5.28;94.83;95781.31;5075785;28;20411;-60
2021/12/01 05:10:06;;;;;;;0.95;0.95;;;;;;;5.23;95.51;95774.16;5092336;28;20412;-59
2021/12/01 05:12:31;;;;;;;0.93;0.90;;;;;;;5.35;94.49;95775.00;5091703;28;20399;-60
2021/12/01 05:14:57;;;;;;;0.90;0.90;;;;;;;5.22;95.07;95774.38;5083230;28;20390;-60
2021/12/01 05:17:22;;;;;;;0.80;0.80;;;;;;;5.32;94.98;95761.66;5095527;28;20386;-59
2021/12/01 05:19:48;;;;;;;0.80;0.80;;;;;;;5.25;94.68;95756.53;5095992;28;20480;-60
2021/12/01 05:22:14;;;;;;;0.83;0.83;;;;;;;5.33;94.73;95752.88;5093609;28;20390;-59
2021/12/01 05:24:40;;;;;;;0.70;0.70;;;;;;;5.29;94.81;95755.13;5075777;28;20384;-60
2021/12/01 05:27:07;;;;;;;0.80;0.80;;;;;;;5.30;95.32;95756.69;5076043;28;20474;-60
2021/12/01 05:29:32;;;;;;;0.80;0.80;;;;;;;5.36;94.95;95752.41;5087445;28;20398;-61
2021/12/01 05:31:59;;;;;;;0.80;0.80;;;;;;;5.25;95.27;95753.16;5095428;28;20492;-61
2021/12/01 05:34:26;;;;;;;0.70;0.70;;;;;;;5.36;94.35;95758.41;5094513;28;20796;-61
2021/12/01 05:36:52;;;;;;;0.77;0.77;;;;;;;5.52;93.70;95745.84;5094948;28;20429;-59
2021/12/01 05:39:18;;;;;;;0.75;0.75;;;;;;;5.44;93.41;95741.72;5094523;28;20819;-59
2021/12/01 05:41:44;;;;;;;0.80;0.80;;;;;;;5.35;94.18;95750.84;5095010;28;20497;-61
2021/12/01 05:44:10;;;;;;;0.88;0.88;;;;;;;5.47;93.45;95748.28;5076925;28;20442;-61
2021/12/01 05:46:35;;;;;;;0.77;0.77;;;;;;;5.66;92.27;95737.63;5074952;28;20911;-60
2021/12/01 05:49:02;;;;;;;1.13;0.70;;;;;;;5.60;93.00;95745.50;5075869;28;20424;-61
2021/12/01 05:51:28;;;;;;;0.70;0.70;;;;;;;5.60;92.59;95745.50;5077391;28;20759;-61
2021/12/01 05:53:54;;;;;;;0.80;0.80;;;;;;;5.64;92.76;95731.06;5074802;28;20423;-60
2021/12/01 05:56:19;;;;;;;0.77;0.77;;;;;;;5.71;92.68;95731.75;5073629;28;20411;-61
2021/12/01 05:58:45;;;;;;;0.80;0.70;;;;;;;5.69;92.59;95725.97;5074895;28;20871;-59
2021/12/01 06:01:10;;;;;;;0.70;0.70;;;;;;;5.51;93.14;95713.06;5078469;28;20804;-61
2021/12/01 06:03:38;;;;;;;0.80;0.80;;;;;;;5.65;93.40;95714.44;5073690;28;20464;-60
2021/12/01 06:06:04;;;;;;;0.80;0.80;;;;;;;5.68;92.38;95709.63;5086505;28;20403;-64
2021/12/01 06:08:30;;;;;;;0.93;0.87;;;;;;;5.84;91.99;95701.19;5076242;28;21419;-60
2021/12/01 06:10:55;;;;;;;0.80;0.80;;;;;;;5.81;91.55;95693.00;5079505;28;20392;-61
2021/12/01 06:13:21;;;;;;;0.70;0.70;;;;;;;5.63;92.36;95696.47;5075983;28;20396;-61
2021/12/01 06:15:49;;;;;;;0.85;0.70;;;;;;;5.67;92.98;95695.03;5094370;28;20475;-61
2021/12/01 06:18:15;;;;;;;0.60;0.60;;;;;;;5.76;91.98;95685.09;5093507;28;20386;-61
2021/12/01 06:20:41;;;;;;;0.80;0.80;;;;;;;5.74;91.85;95690.50;5074366;28;20485;-61
2021/12/01 06:23:07;;;;;;;0.80;0.80;;;;;;;5.89;91.47;95690.13;5074576;28;20419;-61
2021/12/01 06:25:33;;;;;;;0.82;0.70;;;;;;;5.83;92.14;95676.19;5094113;28;20669;-60
2021/12/01 06:27:58;;;;;;;0.80;0.80;;;;;;;5.74;92.48;95671.53;5086319;28;20410;-61
2021/12/01 06:30:25;;;;;;;0.82;0.82;;;;;;;5.79;92.55;95656.06;5091881;28;20453;-61
2021/12/01 06:32:51;;;;;;;0.80;0.80;;;;;;;5.85;91.47;95658.53;5094548;28;20430;-60
2021/12/01 06:35:17;;;;;;;0.80;0.80;;;;;;;5.80;91.85;95653.22;5091390;28;20451;-60
2021/12/01 06:37:44;;;;;;;0.60;0.60;;;;;;;5.83;92.22;95660.59;5094419;28;20485;-61
2021/12/01 06:40:10;;;;;;;0.70;0.70;;;;;;;5.77;92.55;95652.88;5081796;28;20394;-61
2021/12/01 06:42:36;;;;;;;0.60;0.60;;;;;;;5.99;91.37;95655.75;5085280;28;20472;-60
2021/12/01 06:45:07;;;;;;;0.73;0.73;;;;;;;6.14;90.96;95663.91;5079227;28;20408;-61
2021/12/01 06:47:32;;;;;;;0.80;0.80;;;;;;;6.13;90.36;95664.94;5073755;28;20407;-62
2021/12/01 06:49:59;;;;;;;0.77;0.77;;;;;;;6.17;89.97;95668.66;5073438;28;20399;-61
2021/12/01 06:52:28;;;;;;;0.82;0.82;;;;;;;6.04;90.44;95654.06;5091613;28;20409;-61
2021/12/01 06:54:54;;;;;;;0.80;0.80;;;;;;;6.09;90.53;95658.59;5080500;28;20431;-60
2021/12/01 06:57:19;;;;;;;0.70;0.70;;;;;;;6.00;90.54;95644.34;5074007;28;20395;-61
2021/12/01 06:59:45;;;;;;;2.00;0.70;;;;;;;5.98;89.91;95641.16;5085437;28;20404;-59
2021/12/01 07:02:11;;;;;;;0.70;0.70;;;;;;;6.03;90.27;95630.88;5089977;28;20447;-61
2021/12/01 07:04:37;;;;;;;0.80;0.80;;;;;;;6.12;88.28;95609.53;5085203;28;20434;-61
2021/12/01 07:07:02;;;;;;;0.70;0.70;;;;;;;6.16;87.63;95625.47;5074033;28;20410;-61
2021/12/01 07:09:28;;;;;;;0.82;0.82;;;;;;;6.16;87.48;95620.25;5071431;28;20908;-61
2021/12/01 07:11:54;;;;;;;0.80;0.63;;;;;;;6.18;87.48;95629.44;5082675;28;20402;-63
2021/12/01 07:14:19;;;;;;;0.80;0.80;;;;;;;6.22;87.97;95620.16;5080870;28;20391;-62
2021/12/01 07:16:45;;;;;;;0.80;0.80;;;;;;;6.36;87.92;95612.06;5093189;28;20428;-63
2021/12/01 07:19:11;;;;;;;0.80;0.80;;;;;;;6.41;87.22;95604.41;5090894;28;20506;-62
2021/12/01 07:21:36;;;;;;;0.80;0.80;;;;;;;6.39;86.21;95607.22;5091867;28;20758;-60
2021/12/01 07:24:03;;;;;;;0.80;0.80;;;;;;;6.34;86.27;95601.13;5090611;28;20398;-59
2021/12/01 07:26:29;;;;;;;1.30;0.73;;;;;;;6.38;86.74;95599.63;5090888;28;20394;-60
2021/12/01 07:28:55;;;;;;;1.38;0.80;;;;;;;6.39;86.34;95591.63;5089827;28;20410;-57
2021/12/01 07:31:20;;;;;;;0.80;0.80;;;;;;;6.39;86.27;95581.19;5089330;28;20402;-62
2021/12/01 07:33:46;;;;;;;0.80;0.80;;;;;;;6.54;85.20;95581.50;5085014;28;20933;-59
2021/12/01 07:36:11;;;;;;;0.85;0.85;;;;;;;6.56;85.54;95573.47;5072350;28;20392;-59
2021/12/01 07:38:37;;;;;;;0.80;0.80;;;;;;;6.53;85.73;95579.91;5074601;28;20740;-58
2021/12/01 07:41:02;;;;;;;1.00;0.90;;;;;;;6.66;85.39;95574.44;5073383;28;20403;-59
2021/12/01 07:43:28;;;;;;;1.00;0.63;;;;;;;6.53;84.98;95560.91;5084017;28;20396;-64
2021/12/01 07:45:53;;;;;;;1.20;1.00;;;;;;;7.96;100.00;95550.00;5076759;28;20899;-60
2021/12/01 07:48:19;;;;;;;1.10;0.70;;;;;;;7.90;82.90;95548.34;5076633;28;20433;-57
2021/12/01 07:50:45;;;;;;;0.60;0.60;;;;;;;7.71;80.68;95549.63;5078335;28;20441;-59
2021/12/01 07:53:10;;;;;;;0.60;0.60;;;;;;;7.37;81.25;95536.59;5078934;28;20396;-58
2021/12/01 07:55:36;;;;;;;0.70;0.70;;;;;;;7.16;82.41;95526.09;5078854;28;20435;-58
2021/12/01 07:58:01;;;;;;;0.70;0.70;;;;;;;7.00;83.81;95517.25;5085049;28;20394;-58
2021/12/01 08:00:27;;;;;;;0.60;0.60;;;;;;;6.95;82.92;95514.56;5086726;28;20404;-58
2021/12/01 08:02:53;;;;;;;0.60;0.60;;;;;;;7.03;82.84;95512.34;5085661;28;20481;-58
2021/12/01 08:05:19;;;;;;;0.60;0.60;;;;;;;7.00;83.24;95502.41;5086849;28;20512;-60
2021/12/01 08:07:44;;;;;;;3.13;0.60;;;;;;;7.05;83.09;95512.91;5081411;28;20835;-59
2021/12/01 08:10:10;;;;;;;0.77;0.77;;;;;;;7.08;82.60;95506.41;5081435;28;20402;-58
2021/12/01 08:12:38;;;;;;;0.63;0.63;;;;;;;7.06;82.80;95495.47;5092287;28;20497;-60
2021/12/01 08:15:06;;;;;;;0.77;0.77;;;;;;;6.98;82.53;95491.41;5078668;28;20447;-60
2021/12/01 08:17:32;;;;;;;0.70;0.70;;;;;;;7.06;81.88;95479.84;5092801;28;20924;-58
2021/12/01 08:19:58;;;;;;;0.88;0.52;;;;;;;6.95;82.42;95467.66;5080511;28;20404;-57
2021/12/01 08:22:28;;;;;;;0.68;0.68;;;;;;;7.05;82.44;95466.00;5072250;28;20474;-61
2021/12/01 08:24:57;;;;;;;0.70;0.70;;;;;;;7.16;82.53;95473.97;5083656;28;20399;-59
2021/12/01 08:27:24;;;;;;;0.70;0.70;;;;;;;7.24;81.97;95479.59;5086033;28;20642;-59
2021/12/01 08:29:50;;;;;;;0.70;0.70;;;;;;;7.14;81.80;95463.00;5092109;28;20421;-59
2021/12/01 08:32:16;;;;;;;0.80;0.80;;;;;;;7.20;82.44;95462.06;5074666;28;20423;-59
2021/12/01 08:34:43;;;;;;;0.60;0.60;;;;;;;7.46;81.90;95458.81;5073262;28;20447;-59
2021/12/01 08:37:10;;;;;;;0.60;0.60;;;;;;;7.31;81.32;95448.94;5076639;28;20476;-61
2021/12/01 08:39:36;;;;;;;0.60;0.60;;;;;;;7.36;82.21;95440.41;5073208;28;20483;-61
2021/12/01 08:42:02;;;;;;;1.30;0.70;;;;;;;7.29;82.88;95440.59;5073050;28;20481;-61
2021/12/01 08:44:27;;;;;;;0.65;0.65;;;;;;;7.57;81.88;95442.28;5072852;28;20392;-58
2021/12/01 08:46:53;;;;;;;0.70;0.70;;;;;;;7.56;81.54;95437.31;5080315;28;20400;-58
2021/12/01 08:49:18;;;;;;;0.80;0.60;;;;;;;7.71;81.50;95440.09;5072740;28;20413;-61
2021/12/01 08:51:44;;;;;;;0.60;0.60;;;;;;;7.52;82.12;95431.78;5075642;28;21673;-59
2021/12/01 08:54:13;;;;;;;0.70;0.70;;;;;;;7.70;81.40;95425.47;5092384;28;20782;-59
2021/12/01 08:56:41;;;;;;;0.60;0.60;;;;;;;7.67;80.98;95418.94;5080917;28;20407;-59
2021/12/01 08:59:06;;;;;;;0.60;0.60;;;;;;;7.69;80.63;95418.72;5077249;28;20429;-61
2021/12/01 09:01:32;;;;;;;0.70;0.70;;;;;;;7.93;79.93;95410.38;5089729;28;20434;-59
2021/12/01 09:03:58;;;;;;;0.60;0.50;;;;;;;8.03;79.22;95411.53;5080515;28;20491;-59
2021/12/01 09:06:23;;;;;;;0.60;0.60;;;;;;;7.97;79.15;95407.31;5093645;28;20459;-54
2021/12/01 09:08:49;;;;;;;0.50;0.50;;;;;;;8.15;78.53;95410.38;5082711;28;20403;-59
2021/12/01 09:11:14;;;;;;;0.60;0.60;;;;;;;8.38;78.17;95403.31;5083366;28;20430;-56
2021/12/01 09:13:40;;;;;;;0.70;0.70;;;;;;;8.42;77.50;95405.19;5083819;28;20485;-56
2021/12/01 09:16:06;;;;;;;1.00;0.60;;;;;;;8.43;77.11;95398.16;5087023;28;20764;-60
2021/12/01 09:18:33;;;;;;;0.70;0.70;;;;;;;8.33;77.40;95385.78;5079007;28;20816;-59
2021/12/01 09:21:01;;;;;;;0.60;0.60;;;;;;;8.42;77.80;95391.34;5093261;28;20386;-57
2021/12/01 09:23:26;;;;;;;0.55;0.55;;;;;;;8.69;77.41;95394.75;5086094;28;20398;-59
2021/12/01 09:25:52;;;;;;;9.95;7.70;;;;;;;8.83;76.39;95388.06;5092739;28;20415;-57
2021/12/01 09:28:22;;;;;;;0.50;0.50;;;;;;;8.88;76.81;95380.25;5072830;28;20415;-59
2021/12/01 09:30:48;;;;;;;0.50;0.50;;;;;;;8.88;76.23;95379.47;5077272;28;20401;-59
2021/12/01 09:33:16;;;;;;;0.50;0.50;;;;;;;8.95;76.15;95374.81;5084002;28;20439;-60
2021/12/01 09:35:42;;;;;;;0.55;0.55;;;;;;;8.71;75.66;95364.72;5078178;28;20399;-60
2021/12/01 09:38:08;;;;;;;0.50;0.50;;;;;;;8.58;76.76;95356.53;5093361;28;20397;-60
2021/12/01 09:40:34;;;;;;;0.50;0.50;;;;;;;8.57;77.16;95347.91;5092712;28;20480;-60
2021/12/01 09:43:00;;;;;;;0.50;0.50;;;;;;;8.59;76.82;95324.91;5093453;28;20390;-58
2021/12/01 09:45:28;;;;;;;0.50;0.50;;;;;;;8.69;76.87;95335.44;5078687;28;20415;-59
2021/12/01 09:47:54;;;;;;;0.50;0.50;;;;;;;8.43;77.32;95314.59;5076050;28;20414;-59
2021/12/01 09:50:20;;;;;;;0.60;0.60;;;;;;;8.52;77.83;95315.75;5081947;28;20387;-60
2021/12/01 09:52:46;;;;;;;0.50;0.50;;;;;;;8.63;77.05;95306.94;5073855;28;20411;-59
2021/12/01 09:55:13;;;;;;;0.50;0.50;;;;;;;8.60;77.58;95294.38;5084535;28;20416;-60
2021/12/01 09:57:55;;;;;;;0.60;0.60;;;;;;;8.66;77.19;95283.72;5080048;28;20399;-60
2021/12/01 10:00:21;;;;;;;0.60;0.60;;;;;;;8.73;76.96;95275.66;5081470;28;20887;-60
2021/12/01 10:02:46;;;;;;;0.60;0.60;;;;;;;8.56;77.04;95277.63;5075281;28;20411;-60
2021/12/01 10:05:12;;;;;;;0.70;0.70;;;;;;;8.50;77.06;95260.34;5090472;28;20433;-60
2021/12/01 10:07:38;;;;;;;0.60;0.60;;;;;;;8.71;76.78;95264.66;5091577;28;20410;-60
2021/12/01 10:10:09;;;;;;;0.60;0.60;;;;;;;8.72;76.31;95263.63;5083724;28;20403;-60
2021/12/01 10:12:50;;;;;;;0.50;0.50;;;;;;;8.70;76.45;95258.66;5073701;28;20395;-60
2021/12/01 10:15:29;;;;;;;0.60;0.60;;;;;;;8.78;76.52;95262.63;5074380;28;20394;-60
2021/12/01 10:18:12;;;;;;;0.55;0.55;;;;;;;8.84;76.20;95259.00;5073694;28;20807;-60
2021/12/01 10:20:37;;;;;;;0.50;0.50;;;;;;;8.73;76.18;95250.34;5088455;28;20401;-60
2021/12/01 10:23:16;;;;;;;0.60;0.60;;;;;;;8.72;76.00;95243.53;5089884;28;20473;-60
2021/12/01 10:25:43;;;;;;;0.60;0.60;;;;;;;8.74;76.54;95233.63;5091693;28;20416;-60
2021/12/01 10:28:13;;;;;;;0.60;0.60;;;;;;;8.93;76.41;95230.56;5073538;28;20403;-60
2021/12/01 10:30:45;;;;;;;0.50;0.50;;;;;;;9.25;74.82;95226.00;5084689;28;20392;-60
2021/12/01 10:33:16;;;;;;;0.60;0.60;;;;;;;9.34;74.18;95227.09;5087708;28;20423;-60
2021/12/01 10:35:43;;;;;;;0.60;0.60;;;;;;;9.24;75.10;95221.03;5073024;28;20494;-60
2021/12/01 10:38:13;;;;;;;0.60;0.60;;;;;;;9.24;74.40;95219.22;5073226;28;20513;-60
2021/12/01 10:40:40;;;;;;;0.50;0.50;;;;;;;9.37;74.28;95216.09;5081440;28;20456;-60
2021/12/01 10:43:14;;;;;;;0.50;0.50;;;;;;;9.56;73.29;95214.59;5075043;28;20384;-60
2021/12/01 10:45:41;;;;;;;0.50;0.50;;;;;;;9.53;73.58;95206.47;5082763;28;20394;-59
2021/12/01 10:48:09;;;;;;;0.63;0.60;;;;;;;9.53;74.20;95196.00;5087692;28;20440;-59
2021/12/01 10:50:41;;;;;;;0.50;0.50;;;;;;;9.67;73.49;95194.47;5090524;28;20817;-57
2021/12/01 10:53:10;;;;;;;0.65;0.65;;;;;;;9.76;73.13;95192.13;5086788;28;20746;-56
2021/12/01 10:56:04;;;;;;;0.40;0.40;;;;;;;9.52;73.45;95176.94;5073382;28;20981;-58
2021/12/01 10:58:34;;;;;;;0.50;0.50;;;;;;;9.80;73.59;95180.91;5088399;28;20496;-58
2021/12/01 11:01:01;;;;;;;0.50;0.50;;;;;;;9.60;74.11;95183.47;5087076;28;20396;-60
2021/12/01 11:06:08;;;;;;;0.50;0.50;;;;;;;9.46;75.20;95171.94;5100902;28;20424;-61
2021/12/01 11:08:37;;;;;;;0.60;0.60;;;;;;;9.62;74.37;95162.28;5110708;28;20463;-60
2021/12/01 11:11:11;;;;;;;0.50;0.50;;;;;;;9.82;74.90;95159.69;5109468;28;20402;-60
2021/12/01 11:13:40;;;;;;;0.70;0.60;;;;;;;9.89;74.37;95153.16;5113142;28;20420;-61
2021/12/01 11:16:07;;;;;;;0.70;0.70;;;;;;;9.65;75.82;95141.63;5080806;28;20208;-60
2021/12/01 11:18:36;;;;;;;0.50;0.50;;;;;;;9.76;76.07;95130.13;5093757;28;20226;-61
2021/12/01 11:21:07;;;;;;;0.50;0.50;;;;;;;9.83;76.74;95128.03;5094116;28;20172;-58
2021/12/01 11:23:38;;;;;;;0.60;0.60;;;;;;;9.55;78.64;95129.31;5093845;28;20256;-61
2021/12/01 11:26:10;;;;;;;3.20;0.57;;;;;;;9.59;78.90;95125.13;5106400;28;20344;-61
2021/12/01 11:28:45;;;;;;;0.60;0.60;;;;;;;9.48;78.48;95115.72;5101827;28;20201;-61
2021/12/01 11:31:16;;;;;;;0.40;0.40;;;;;;;9.62;77.73;95117.81;5107922;28;20176;-61
2021/12/01 11:33:44;;;;;;;0.60;0.60;;;;;;;9.59;77.66;95113.88;5097091;28;20168;-61
2021/12/01 11:36:12;;;;;;;0.60;0.60;;;;;;;9.78;77.48;95106.31;5113169;28;20594;-57
2021/12/01 11:38:37;;;;;;;1.70;0.70;;;;;;;9.60;77.63;95097.16;5102620;28;20177;-59
2021/12/01 11:41:05;;;;;;;0.50;0.50;;;;;;;9.66;77.80;95111.03;5106125;28;20179;-61
2021/12/01 11:43:33;;;;;;;0.60;0.60;;;;;;;9.86;77.88;95084.88;5112775;28;20168;-59
2021/12/01 11:45:59;;;;;;;0.80;0.80;;;;;;;10.14;77.14;95076.41;5108704;28;20197;-59
2021/12/01 11:48:42;;;;;;;0.90;0.90;;;;;;;10.32;76.44;95075.88;5099606;28;20192;-59